Time;durP1;ratioP1;P1;durP2;ratioP2;P2;SDS_P1;SDS_P2;PMS_P1;PMS_P2;Temp;Humidity;BMP_temperature;BMP_pressure;BME280_temperature;BME280_humidity;BME280_pressure;Samples;Min_cycle;Max_cycle;Signal;HPM_P1;HPM_P2
2023/07/12 00:01:59;;;;;;;;;;;;;;;;;;6307785;28;20048;-82
2023/07/12 00:05:01;;;;;;;9.45;5.75;;;;;;;;;;6292857;28;20100;-82
2023/07/12 00:08:04;;;;;;;9.95;6.00;;;;;;;;;;6308707;28;20043;-81
2023/07/12 00:11:13;;;;;;;7.30;5.55;;;;;;;;;;6304294;28;20121;-81
2023/07/12 00:14:15;;;;;;;7.18;5.68;;;;;;;;;;6293474;28;20090;-83
2023/07/12 00:17:18;;;;;;;7.22;5.80;;;;;;;;;;6294277;28;20113;-81
2023/07/12 00:20:30;;;;;;;8.25;6.20;;;;;;;;;;6279446;28;20056;-84
2023/07/12 00:23:31;;;;;;;8.18;5.45;;;;;;;;;;6288283;28;20496;-82
2023/07/12 00:26:35;;;;;;;9.27;5.75;;;;;;;;;;6315935;28;20100;-81
2023/07/12 00:29:37;;;;;;;6.13;5.53;;;;;;;;;;6317124;28;20047;-78
2023/07/12 00:32:39;;;;;;;8.13;5.30;;;;;;;;;;6310486;28;20080;-77
2023/07/12 00:35:42;;;;;;;7.70;5.50;;;;;;;;;;6296395;28;20421;-80
2023/07/12 00:38:48;;;;;;;9.95;5.93;;;;;;;;;;6292400;28;20686;-80
2023/07/12 00:42:11;;;;;;;6.65;5.38;;;;;;;;;;6311643;28;20119;-81
2023/07/12 00:45:14;;;;;;;9.65;6.00;;;;;;;;;;6298290;28;20069;-78
2023/07/12 00:48:16;;;;;;;7.55;6.05;;;;;;;;;;6292554;28;20043;-81
2023/07/12 00:51:26;;;;;;;6.57;5.72;;;;;;;;;;6313958;28;20044;-80
2023/07/12 00:54:59;;;;;;;7.80;5.88;;;;;;;;;;6308077;28;20104;-80
2023/07/12 00:58:01;;;;;;;7.53;5.85;;;;;;;;;;6297600;28;20500;-81
2023/07/12 01:01:04;;;;;;;8.55;6.07;;;;;;;;;;6291234;28;20097;-81
2023/07/12 01:04:08;;;;;;;9.13;5.97;;;;;;;;;;6292576;28;20067;-80
2023/07/12 01:07:12;;;;;;;8.02;6.03;;;;;;;;;;6296176;28;20051;-80
2023/07/12 01:10:14;;;;;;;9.35;6.28;;;;;;;;;;6294290;28;20521;-79
2023/07/12 01:13:21;;;;;;;8.80;6.18;;;;;;;;;;6301719;28;20056;-78
2023/07/12 01:16:24;;;;;;;9.23;6.38;;;;;;;;;;6307266;28;20104;-79
2023/07/12 01:19:27;;;;;;;9.48;6.00;;;;;;;;;;6316086;28;20056;-79
2023/07/12 01:22:28;;;;;;;7.75;6.57;;;;;;;;;;6297680;28;20044;-80
2023/07/12 01:25:37;;;;;;;9.80;6.47;;;;;;;;;;6313793;28;20149;-82
2023/07/12 01:28:40;;;;;;;8.88;6.22;;;;;;;;;;6294889;28;20050;-78
2023/07/12 01:31:44;;;;;;;7.80;6.53;;;;;;;;;;6271603;28;20044;-81
2023/07/12 01:34:46;;;;;;;8.25;6.63;;;;;;;;;;6293573;28;20048;-81
2023/07/12 01:37:48;;;;;;;8.30;6.33;;;;;;;;;;6289684;28;20561;-80
2023/07/12 01:40:49;;;;;;;7.90;6.88;;;;;;;;;;6317008;28;20055;-79
2023/07/12 01:43:52;;;;;;;9.45;6.80;;;;;;;;;;6290535;28;20044;-81
2023/07/12 01:46:54;;;;;;;11.32;6.60;;;;;;;;;;6290528;28;20036;-81
2023/07/12 01:49:57;;;;;;;8.45;6.65;;;;;;;;;;6265509;28;20410;-79
2023/07/12 01:52:58;;;;;;;9.98;6.95;;;;;;;;;;6287698;28;20056;-82
2023/07/12 01:56:01;;;;;;;8.70;6.47;;;;;;;;;;6306878;28;20040;-82
2023/07/12 01:59:03;;;;;;;9.55;6.78;;;;;;;;;;6290187;28;20439;-82
2023/07/12 02:02:05;;;;;;;9.23;7.07;;;;;;;;;;6292007;28;20059;-82
2023/07/12 02:05:07;;;;;;;9.60;7.40;;;;;;;;;;6291445;28;20046;-81
2023/07/12 02:08:11;;;;;;;12.27;7.70;;;;;;;;;;6294512;28;20040;-81
2023/07/12 02:11:14;;;;;;;9.60;7.47;;;;;;;;;;6288671;28;20044;-82
2023/07/12 02:14:15;;;;;;;8.75;7.45;;;;;;;;;;6294193;28;20052;-82
2023/07/12 02:17:17;;;;;;;10.15;7.05;;;;;;;;;;6293144;28;20066;-81
2023/07/12 02:20:19;;;;;;;9.43;7.03;;;;;;;;;;6290902;28;20052;-81
2023/07/12 02:23:20;;;;;;;10.35;7.80;;;;;;;;;;6288123;28;20052;-82
2023/07/12 02:26:23;;;;;;;11.15;7.57;;;;;;;;;;6308502;28;20460;-81
2023/07/12 02:29:25;;;;;;;;;;;;;;;;;;6288165;28;20063;-81
2023/07/12 02:32:28;;;;;;;9.73;6.90;;;;;;;;;;6287277;28;19942;-80
2023/07/12 02:35:31;;;;;;;10.10;7.13;;;;;;;;;;6294220;28;20446;-81
2023/07/12 02:38:33;;;;;;;;;;;;;;;;;;6296081;28;20040;-81
2023/07/12 02:41:34;;;;;;;8.32;6.70;;;;;;;;;;6303500;28;19927;-83
2023/07/12 02:44:40;;;;;;;12.45;7.05;;;;;;;;;;6307886;28;20044;-82
2023/07/12 02:47:41;;;;;;;11.50;7.90;;;;;;;;;;6305648;28;20054;-81
2023/07/12 02:50:43;;;;;;;11.35;7.40;;;;;;;;;;6291021;28;20116;-82
2023/07/12 02:53:44;;;;;;;10.60;7.20;;;;;;;;;;6303215;28;20044;-82
2023/07/12 02:56:46;;;;;;;9.25;7.25;;;;;;;;;;6307430;28;20044;-82
2023/07/12 02:59:48;;;;;;;8.05;6.93;;;;;;;;;;6309731;28;20058;-82
2023/07/12 03:02:50;;;;;;;10.23;7.43;;;;;;;;;;6287178;28;20049;-82
2023/07/12 03:05:51;;;;;;;8.93;7.10;;;;;;;;;;6273779;28;20424;-83
2023/07/12 03:08:53;;;;;;;10.68;7.97;;;;;;;;;;6307105;28;20044;-82
2023/07/12 03:11:55;;;;;;;9.30;7.18;;;;;;;;;;6309568;28;20040;-82
2023/07/12 03:14:56;;;;;;;9.07;7.05;;;;;;;;;;6296995;28;20040;-83
2023/07/12 03:17:58;;;;;;;10.30;6.80;;;;;;;;;;6274542;28;20043;-84
2023/07/12 03:21:02;;;;;;;9.52;6.72;;;;;;;;;;6274386;28;20053;-82
2023/07/12 03:24:05;;;;;;;12.85;6.85;;;;;;;;;;6288632;28;20059;-83
2023/07/12 03:27:07;;;;;;;8.93;6.40;;;;;;;;;;6308740;28;20036;-82
2023/07/12 03:30:09;;;;;;;9.20;6.32;;;;;;;;;;6289368;28;20096;-81
2023/07/12 03:33:10;;;;;;;9.90;6.80;;;;;;;;;;6309291;28;20032;-81
2023/07/12 03:36:14;;;;;;;10.52;6.95;;;;;;;;;;6308188;28;20048;-80
2023/07/12 03:39:15;;;;;;;8.65;6.60;;;;;;;;;;6271857;28;20036;-82
2023/07/12 03:42:17;;;;;;;14.57;7.60;;;;;;;;;;6302087;28;20155;-81
2023/07/12 03:45:20;;;;;;;11.40;6.75;;;;;;;;;;6305211;28;20036;-79
2023/07/12 03:48:23;;;;;;;9.23;6.57;;;;;;;;;;6287368;28;20051;-80
2023/07/12 03:51:25;;;;;;;10.48;6.55;;;;;;;;;;6305372;28;20610;-81
2023/07/12 03:54:26;;;;;;;8.98;7.18;;;;;;;;;;6303896;28;20054;-82
2023/07/12 03:57:28;;;;;;;8.50;7.03;;;;;;;;;;6307302;28;20066;-80
2023/07/12 04:00:30;;;;;;;9.55;7.25;;;;;;;;;;6296482;28;20044;-81
2023/07/12 04:03:32;;;;;;;9.73;6.32;;;;;;;;;;6312450;28;20119;-81
2023/07/12 04:06:34;;;;;;;;;;;;;;;;;;6310150;28;20112;-82
2023/07/12 04:09:36;;;;;;;8.85;6.25;;;;;;;;;;6279225;28;19924;-82
2023/07/12 04:12:38;;;;;;;10.35;7.18;;;;;;;;;;6301637;28;20046;-81
2023/07/12 04:15:42;;;;;;;10.45;7.80;;;;;;;;;;6312129;28;20092;-81
2023/07/12 04:18:44;;;;;;;16.33;11.57;;;;;;;;;;6311238;28;20044;-81
2023/07/12 04:21:45;;;;;;;13.05;9.20;;;;;;;;;;6312541;28;20097;-79
2023/07/12 04:24:52;;;;;;;13.43;8.82;;;;;;;;;;6311693;28;20040;-80
2023/07/12 04:27:54;;;;;;;6.60;4.65;;;;;;;;;;6292550;28;20051;-79
2023/07/12 04:30:56;;;;;;;4.78;3.10;;;;;;;;;;6311081;28;20048;-79
2023/07/12 04:33:57;;;;;;;3.90;2.97;;;;;;;;;;6311326;28;20477;-78
2023/07/12 04:36:59;;;;;;;5.25;3.10;;;;;;;;;;6311874;28;20701;-79
2023/07/12 04:40:01;;;;;;;3.55;3.08;;;;;;;;;;6305437;28;20037;-79
2023/07/12 04:43:03;;;;;;;3.17;2.80;;;;;;;;;;6288342;28;20040;-79
2023/07/12 04:46:05;;;;;;;4.00;2.53;;;;;;;;;;6288398;28;20055;-78
2023/07/12 04:49:08;;;;;;;3.90;2.60;;;;;;;;;;6286671;28;20063;-78
2023/07/12 04:52:14;;;;;;;3.22;2.63;;;;;;;;;;6267707;28;20064;-78
2023/07/12 04:55:26;;;;;;;3.47;2.25;;;;;;;;;;6300650;28;20125;-78
2023/07/12 04:58:28;;;;;;;5.80;2.38;;;;;;;;;;6306695;28;20101;-79
2023/07/12 05:01:31;;;;;;;2.27;2.00;;;;;;;;;;6287940;28;20410;-78
2023/07/12 05:04:33;;;;;;;2.42;1.83;;;;;;;;;;6306771;28;20128;-79
2023/07/12 05:07:36;;;;;;;4.28;2.33;;;;;;;;;;6289560;28;20055;-78
2023/07/12 05:10:38;;;;;;;6.38;2.45;;;;;;;;;;6282909;28;20040;-78
2023/07/12 05:13:40;;;;;;;3.17;2.25;;;;;;;;;;6308873;28;20058;-78
2023/07/12 05:16:41;;;;;;;2.83;2.17;;;;;;;;;;6289447;28;20721;-78
2023/07/12 05:19:43;;;;;;;4.55;2.40;;;;;;;;;;6288929;28;20063;-79
2023/07/12 05:22:47;;;;;;;3.25;2.00;;;;;;;;;;6305916;28;20059;-79
2023/07/12 05:25:53;;;;;;;6.00;2.50;;;;;;;;;;6306391;28;20040;-79
2023/07/12 05:28:56;;;;;;;4.28;2.15;;;;;;;;;;6305950;28;20050;-79
2023/07/12 05:31:58;;;;;;;3.78;2.30;;;;;;;;;;6290663;28;20114;-79
2023/07/12 05:34:59;;;;;;;3.63;2.30;;;;;;;;;;6308503;28;20051;-78
2023/07/12 05:38:02;;;;;;;3.85;2.40;;;;;;;;;;6279934;28;20044;-78
2023/07/12 05:41:04;;;;;;;4.55;2.80;;;;;;;;;;6304051;28;20048;-80
2023/07/12 05:44:05;;;;;;;5.97;3.00;;;;;;;;;;6289759;28;20506;-79
2023/07/12 05:47:07;;;;;;;3.92;3.00;;;;;;;;;;6309218;28;20044;-79
2023/07/12 05:50:16;;;;;;;3.80;2.43;;;;;;;;;;6304969;28;20189;-79
2023/07/12 05:53:18;;;;;;;4.07;2.80;;;;;;;;;;6308944;28;20040;-79
2023/07/12 05:56:19;;;;;;;3.05;2.55;;;;;;;;;;6286633;28;20627;-78
2023/07/12 05:59:22;;;;;;;4.32;2.60;;;;;;;;;;6307543;28;20070;-79
2023/07/12 06:02:24;;;;;;;4.72;2.50;;;;;;;;;;6289172;28;20702;-79
2023/07/12 06:05:26;;;;;;;4.13;2.63;;;;;;;;;;6301986;28;20044;-76
2023/07/12 06:08:27;;;;;;;3.33;2.90;;;;;;;;;;6302363;28;20044;-76
2023/07/12 06:11:29;;;;;;;3.65;2.40;;;;;;;;;;6302435;28;20036;-77
2023/07/12 06:14:31;;;;;;;3.95;2.47;;;;;;;;;;6286925;28;20050;-77
2023/07/12 06:17:33;;;;;;;4.07;2.20;;;;;;;;;;6305569;28;20044;-77
2023/07/12 06:20:35;;;;;;;2.60;2.03;;;;;;;;;;6304455;28;20052;-76
2023/07/12 06:23:37;;;;;;;2.72;1.98;;;;;;;;;;6284154;28;20044;-77
2023/07/12 06:26:39;;;;;;;1.58;1.48;;;;;;;;;;6299926;28;20615;-77
2023/07/12 06:29:41;;;;;;;3.35;1.70;;;;;;;;;;6304501;28;20048;-77
2023/07/12 06:32:43;;;;;;;2.78;1.70;;;;;;;;;;6304458;28;20058;-77
2023/07/12 06:35:45;;;;;;;3.33;1.60;;;;;;;;;;6286830;28;20726;-77
2023/07/12 06:38:47;;;;;;;2.10;1.42;;;;;;;;;;6287248;28;20535;-77
2023/07/12 06:41:50;;;;;;;2.38;1.65;;;;;;;;;;6284972;28;20048;-77
2023/07/12 06:44:53;;;;;;;1.67;1.25;;;;;;;;;;6286459;28;20047;-77
2023/07/12 06:47:55;;;;;;;1.20;1.05;;;;;;;;;;6304753;28;20047;-77
2023/07/12 06:50:58;;;;;;;2.72;1.02;;;;;;;;;;6288040;28;20075;-77
2023/07/12 06:53:59;;;;;;;2.40;1.00;;;;;;;;;;6301087;28;20055;-77
2023/07/12 06:57:01;;;;;;;1.05;0.90;;;;;;;;;;6299360;28;20108;-76
2023/07/12 07:00:06;;;;;;;0.90;0.80;;;;;;;;;;6286250;28;20052;-76
2023/07/12 07:03:11;;;;;;;1.58;0.90;;;;;;;;;;6283476;28;20072;-77
2023/07/12 07:06:13;;;;;;;0.90;0.73;;;;;;;;;;6303458;28;20040;-76
2023/07/12 07:09:14;;;;;;;1.83;0.90;;;;;;;;;;6284029;28;20041;-79
2023/07/12 07:12:16;;;;;;;2.40;0.98;;;;;;;;;;6302027;28;20044;-76
2023/07/12 07:15:18;;;;;;;1.70;0.63;;;;;;;;;;6302890;28;20040;-77
2023/07/12 07:18:20;;;;;;;0.55;0.55;;;;;;;;;;6301507;28;20071;-77
2023/07/12 07:21:22;;;;;;;1.75;0.80;;;;;;;;;;6303823;28;20138;-76
2023/07/12 07:24:24;;;;;;;1.20;0.80;;;;;;;;;;6303746;28;20036;-77
2023/07/12 07:27:26;;;;;;;2.28;0.80;;;;;;;;;;6285590;28;20048;-77
2023/07/12 07:30:27;;;;;;;2.25;1.30;;;;;;;;;;6304907;28;20047;-77
2023/07/12 07:33:29;;;;;;;0.97;0.87;;;;;;;;;;6291836;28;20039;-77
2023/07/12 07:36:31;;;;;;;1.83;0.90;;;;;;;;;;6310513;28;20046;-77
2023/07/12 07:39:33;;;;;;;1.40;0.70;;;;;;;;;;6306051;28;20049;-75
2023/07/12 07:42:35;;;;;;;1.50;0.80;;;;;;;;;;6277432;28;20475;-77
2023/07/12 07:45:36;;;;;;;3.15;0.93;;;;;;;;;;6305897;28;20040;-77
2023/07/12 07:48:38;;;;;;;2.38;0.93;;;;;;;;;;6305675;28;20036;-78
2023/07/12 07:51:40;;;;;;;2.83;0.90;;;;;;;;;;6289259;28;20525;-77
2023/07/12 07:54:42;;;;;;;2.08;1.05;;;;;;;;;;6303621;28;20043;-77
2023/07/12 07:57:44;;;;;;;1.53;0.70;;;;;;;;;;6306628;28;20056;-77
2023/07/12 08:00:45;;;;;;;1.85;0.80;;;;;;;;;;6308822;28;20560;-77
2023/07/12 08:03:49;;;;;;;2.50;1.02;;;;;;;;;;6307298;28;20033;-77
2023/07/12 08:06:51;;;;;;;1.95;1.00;;;;;;;;;;6291337;28;20129;-76
2023/07/12 08:09:53;;;;;;;1.38;1.00;;;;;;;;;;6305420;28;20046;-79
2023/07/12 08:12:56;;;;;;;3.30;1.17;;;;;;;;;;6313229;28;20087;-80
2023/07/12 08:15:58;;;;;;;1.58;0.80;;;;;;;;;;6291044;28;20067;-78
2023/07/12 08:19:00;;;;;;;1.42;0.90;;;;;;;;;;6311638;28;20044;-78
2023/07/12 08:22:19;;;;;;;1.55;0.82;;;;;;;;;;6307267;28;20071;-78
2023/07/12 08:25:21;;;;;;;1.85;1.00;;;;;;;;;;6307358;28;20059;-78
2023/07/12 08:28:23;;;;;;;0.88;0.73;;;;;;;;;;6287276;28;20040;-78
2023/07/12 08:31:25;;;;;;;0.80;0.70;;;;;;;;;;6277247;28;20059;-78
2023/07/12 08:34:26;;;;;;;1.57;0.80;;;;;;;;;;6307138;28;20372;-79
2023/07/12 08:37:28;;;;;;;0.70;0.70;;;;;;;;;;6293401;28;20128;-79
2023/07/12 08:40:30;;;;;;;1.85;0.93;;;;;;;;;;6278067;28;20047;-78
2023/07/12 08:43:33;;;;;;;1.07;0.70;;;;;;;;;;6313013;28;20055;-78
2023/07/12 08:46:40;;;;;;;4.85;0.90;;;;;;;;;;6314489;28;20044;-77
2023/07/12 08:49:42;;;;;;;0.75;0.60;;;;;;;;;;6312918;28;20040;-79
2023/07/12 08:52:45;;;;;;;2.97;0.70;;;;;;;;;;6291995;28;20055;-80
2023/07/12 08:55:47;;;;;;;;;;;;;;;;;;6303843;28;20047;-79
2023/07/12 08:58:52;;;;;;;0.70;0.60;;;;;;;;;;6313064;28;19920;-80
2023/07/12 09:01:58;;;;;;;1.08;0.73;;;;;;;;;;6308397;28;20052;-81
2023/07/12 09:05:10;;;;;;;0.95;0.60;;;;;;;;;;6293793;28;20070;-79
2023/07/12 09:08:18;;;;;;;1.08;0.70;;;;;;;;;;6308362;28;20056;-81
2023/07/12 09:11:27;;;;;;;1.27;0.85;;;;;;;;;;6310615;28;20040;-80
2023/07/12 09:14:29;;;;;;;1.42;0.50;;;;;;;;;;6284463;28;20173;-79
2023/07/12 09:17:38;;;;;;;1.37;0.80;;;;;;;;;;6312037;28;20040;-81
2023/07/12 09:20:41;;;;;;;1.50;0.70;;;;;;;;;;6310870;28;20040;-80
2023/07/12 09:23:44;;;;;;;2.17;0.60;;;;;;;;;;6279061;28;20123;-79
2023/07/12 09:26:48;;;;;;;2.88;0.70;;;;;;;;;;6311612;28;20054;-79
2023/07/12 09:30:01;;;;;;;0.90;0.60;;;;;;;;;;6288975;28;20903;-78
2023/07/12 09:33:05;;;;;;;0.77;0.65;;;;;;;;;;6299805;28;20050;-77
2023/07/12 09:36:07;;;;;;;1.85;0.65;;;;;;;;;;6307294;28;20110;-77
2023/07/12 09:39:12;;;;;;;0.80;0.68;;;;;;;;;;6307725;28;20043;-78
2023/07/12 09:42:14;;;;;;;1.98;0.80;;;;;;;;;;6305020;28;20059;-78
2023/07/12 09:45:15;;;;;;;2.10;0.80;;;;;;;;;;6304146;28;20078;-78
2023/07/12 09:48:36;;;;;;;2.03;0.70;;;;;;;;;;6284111;28;20564;-79
2023/07/12 09:51:52;;;;;;;1.25;0.73;;;;;;;;;;6306930;28;20044;-79
2023/07/12 09:55:12;;;;;;;1.02;0.70;;;;;;;;;;6306048;28;20051;-78
2023/07/12 09:58:45;;;;;;;1.35;0.75;;;;;;;;;;6310418;28;20046;-78
2023/07/12 10:01:51;;;;;;;1.40;0.70;;;;;;;;;;6295809;28;20079;-80
2023/07/12 10:05:03;;;;;;;1.55;0.90;;;;;;;;;;6292826;28;20070;-82
2023/07/12 10:08:11;;;;;;;1.23;0.82;;;;;;;;;;6314219;28;20063;-82
2023/07/12 10:11:23;;;;;;;0.65;0.65;;;;;;;;;;6307920;28;20107;-82
2023/07/12 10:14:32;;;;;;;1.17;0.80;;;;;;;;;;6306109;28;20509;-82
2023/07/12 10:17:38;;;;;;;1.55;1.02;;;;;;;;;;6309488;28;20048;-82
2023/07/12 10:20:39;;;;;;;2.30;0.80;;;;;;;;;;6311101;28;20040;-82
2023/07/12 10:23:53;;;;;;;0.90;0.77;;;;;;;;;;6306942;28;20405;-84
2023/07/12 10:26:58;;;;;;;1.30;0.70;;;;;;;;;;6295163;28;20117;-82
2023/07/12 10:30:09;;;;;;;0.95;0.60;;;;;;;;;;6314981;28;20036;-82
2023/07/12 10:33:32;;;;;;;0.98;0.70;;;;;;;;;;6306863;28;20086;-82
2023/07/12 10:36:35;;;;;;;2.35;0.82;;;;;;;;;;6293656;28;20058;-81
2023/07/12 10:39:37;;;;;;;1.73;0.80;;;;;;;;;;6293022;28;20052;-81
2023/07/12 10:42:49;;;;;;;0.90;0.70;;;;;;;;;;6307502;28;20047;-83
2023/07/12 10:45:52;;;;;;;1.65;1.10;;;;;;;;;;6290681;28;20056;-79
2023/07/12 10:48:54;;;;;;;2.55;0.80;;;;;;;;;;6308299;28;20050;-80
2023/07/12 10:52:51;;;;;;;1.15;0.90;;;;;;;;;;6310138;28;20509;-79
2023/07/12 10:56:10;;;;;;;2.38;1.00;;;;;;;;;;6273132;28;20075;-79
2023/07/12 10:59:39;;;;;;;1.42;0.80;;;;;;;;;;6306590;28;20044;-79
2023/07/12 11:02:45;;;;;;;1.75;0.88;;;;;;;;;;6303564;28;20043;-81
2023/07/12 11:05:58;;;;;;;1.35;0.85;;;;;;;;;;6302217;28;20131;-77
2023/07/12 11:09:03;;;;;;;0.77;0.70;;;;;;;;;;6301912;28;20165;-76
2023/07/12 11:12:06;;;;;;;1.85;0.88;;;;;;;;;;6287001;28;20044;-77
2023/07/12 11:15:27;;;;;;;0.75;0.75;;;;;;;;;;6301390;28;20493;-78
2023/07/12 11:18:36;;;;;;;1.77;0.90;;;;;;;;;;6295799;28;20532;-78
2023/07/12 11:21:46;;;;;;;1.90;0.77;;;;;;;;;;6304742;28;20071;-77
2023/07/12 11:25:00;;;;;;;1.23;0.80;;;;;;;;;;6303134;28;20506;-76
2023/07/12 11:28:22;;;;;;;1.38;0.90;;;;;;;;;;6287350;28;20149;-77
2023/07/12 11:31:31;;;;;;;1.88;0.85;;;;;;;;;;6302209;28;20660;-77
2023/07/12 11:34:38;;;;;;;2.53;1.05;;;;;;;;;;6286412;28;20052;-77
2023/07/12 11:37:56;;;;;;;1.33;0.90;;;;;;;;;;6295518;28;20052;-77
2023/07/12 11:41:06;;;;;;;1.38;0.85;;;;;;;;;;6287568;28;20036;-77
2023/07/12 11:44:14;;;;;;;1.02;0.70;;;;;;;;;;6306365;28;20054;-78
2023/07/12 11:47:16;;;;;;;2.83;0.80;;;;;;;;;;6310199;28;20138;-79
2023/07/12 11:50:25;;;;;;;1.77;0.93;;;;;;;;;;6313215;28;20032;-80
2023/07/12 11:53:26;;;;;;;1.90;0.80;;;;;;;;;;6308627;28;20044;-77
2023/07/12 11:56:29;;;;;;;1.00;0.80;;;;;;;;;;6290825;28;20505;-80
2023/07/12 11:59:39;;;;;;;1.27;0.90;;;;;;;;;;6316080;28;20044;-79
2023/07/12 12:02:45;;;;;;;5.03;0.90;;;;;;;;;;6305591;28;20085;-78
2023/07/12 12:05:48;;;;;;;1.20;0.80;;;;;;;;;;6309797;28;20082;-77
2023/07/12 12:08:54;;;;;;;1.70;0.88;;;;;;;;;;6308225;28;20052;-77
2023/07/12 12:11:57;;;;;;;2.40;1.05;;;;;;;;;;6309013;28;20131;-78
2023/07/12 12:15:00;;;;;;;1.10;0.75;;;;;;;;;;6307599;28;20040;-76
2023/07/12 12:18:20;;;;;;;1.30;0.85;;;;;;;;;;6307140;28;20050;-77
2023/07/12 12:21:23;;;;;;;1.23;0.80;;;;;;;;;;6310631;28;20043;-79
2023/07/12 12:24:25;;;;;;;1.70;0.90;;;;;;;;;;6311401;28;20060;-78
2023/07/12 12:27:31;;;;;;;1.38;0.70;;;;;;;;;;6297001;28;20406;-77
2023/07/12 12:30:33;;;;;;;2.22;0.73;;;;;;;;;;6311653;28;20048;-78
2023/07/12 12:33:43;;;;;;;;;;;;;;;;;;6305565;28;20089;-78
2023/07/12 12:37:07;;;;;;;1.33;0.73;;;;;;;;;;6305808;28;19961;-81
2023/07/12 12:40:18;;;;;;;2.05;0.80;;;;;;;;;;6308595;28;20058;-82
2023/07/12 12:43:19;;;;;;;2.70;0.77;;;;;;;;;;6292557;28;20105;-81
2023/07/12 12:46:21;;;;;;;1.58;0.80;;;;;;;;;;6309724;28;20170;-80
2023/07/12 12:49:25;;;;;;;1.45;0.80;;;;;;;;;;6309255;28;20044;-77
2023/07/12 12:52:35;;;;;;;0.77;0.70;;;;;;;;;;6291035;28;20048;-83
2023/07/12 12:55:48;;;;;;;0.77;0.63;;;;;;;;;;6314242;28;20063;-80
2023/07/12 12:58:53;;;;;;;2.00;0.85;;;;;;;;;;6312235;28;20048;-81
2023/07/12 13:01:57;;;;;;;2.00;0.90;;;;;;;;;;6309062;28;20051;-75
2023/07/12 13:05:02;;;;;;;1.20;0.80;;;;;;;;;;6311071;28;20420;-80
2023/07/12 13:08:23;;;;;;;1.07;0.70;;;;;;;;;;6291305;28;20130;-77
2023/07/12 13:11:28;;;;;;;1.27;0.75;;;;;;;;;;6289257;28;20471;-77
2023/07/12 13:14:33;;;;;;;2.78;0.98;;;;;;;;;;6306933;28;20040;-78
2023/07/12 13:17:38;;;;;;;1.83;0.90;;;;;;;;;;6306639;28;20570;-77
2023/07/12 13:20:42;;;;;;;0.95;0.82;;;;;;;;;;6306530;28;20032;-77
2023/07/12 13:23:45;;;;;;;1.60;0.80;;;;;;;;;;6304170;28;20052;-76
2023/07/12 13:26:46;;;;;;;3.08;0.80;;;;;;;;;;6303624;28;20044;-77
2023/07/12 13:29:50;;;;;;;3.10;0.85;;;;;;;;;;6272980;28;20067;-77
2023/07/12 13:32:52;;;;;;;1.73;0.95;;;;;;;;;;6284084;28;20048;-77
2023/07/12 13:35:54;;;;;;;1.05;0.77;;;;;;;;;;6300161;28;20442;-82
2023/07/12 13:39:16;;;;;;;2.38;0.95;;;;;;;;;;6310966;28;20539;-83
2023/07/12 13:42:20;;;;;;;0.63;0.60;;;;;;;;;;6314973;28;20056;-82
2023/07/12 13:45:26;;;;;;;2.05;0.73;;;;;;;;;;6313920;28;20055;-82
2023/07/12 13:48:28;;;;;;;3.55;1.00;;;;;;;;;;6289352;28;20060;-80
2023/07/12 13:51:29;;;;;;;2.13;0.90;;;;;;;;;;6309518;28;20519;-83
2023/07/12 13:54:31;;;;;;;0.75;0.73;;;;;;;;;;6320733;28;20048;-81
2023/07/12 13:57:34;;;;;;;2.13;0.57;;;;;;;;;;6309021;28;20931;-81
2023/07/12 14:00:36;;;;;;;1.98;0.77;;;;;;;;;;6303545;28;20240;-82
2023/07/12 14:03:41;;;;;;;0.75;0.70;;;;;;;;;;6293250;28;20048;-81
2023/07/12 14:06:44;;;;;;;1.88;0.65;;;;;;;;;;6313077;28;20036;-84
2023/07/12 14:09:59;;;;;;;1.50;0.80;;;;;;;;;;6310631;28;20126;-82
2023/07/12 14:13:22;;;;;;;3.30;0.80;;;;;;;;;;6278211;28;20047;-82
2023/07/12 14:16:26;;;;;;;2.75;0.80;;;;;;;;;;6291069;28;20036;-83
2023/07/12 14:19:27;;;;;;;0.70;0.63;;;;;;;;;;6290996;28;20044;-82
2023/07/12 14:22:33;;;;;;;2.35;0.80;;;;;;;;;;6297942;28;20052;-82
2023/07/12 14:25:37;;;;;;;0.80;0.70;;;;;;;;;;6309568;28;20044;-81
2023/07/12 14:28:39;;;;;;;3.38;0.70;;;;;;;;;;6289772;28;20036;-83
2023/07/12 14:31:42;;;;;;;1.55;0.80;;;;;;;;;;6306737;28;20410;-82
2023/07/12 14:34:47;;;;;;;2.13;0.70;;;;;;;;;;6303881;28;20043;-83
2023/07/12 14:37:49;;;;;;;2.00;0.80;;;;;;;;;;6290071;28;20044;-83
2023/07/12 14:40:51;;;;;;;1.10;0.70;;;;;;;;;;6306878;28;20044;-83
2023/07/12 14:43:56;;;;;;;1.30;0.73;;;;;;;;;;6305818;28;20085;-82
2023/07/12 14:46:57;;;;;;;1.15;0.70;;;;;;;;;;6304756;28;20177;-83
2023/07/12 14:49:59;;;;;;;1.05;0.80;;;;;;;;;;6302976;28;20066;-83
2023/07/12 14:53:01;;;;;;;1.70;0.90;;;;;;;;;;6305988;28;20058;-83
2023/07/12 14:56:03;;;;;;;1.17;0.73;;;;;;;;;;6287436;28;20040;-83
2023/07/12 14:59:11;;;;;;;1.98;0.70;;;;;;;;;;6296119;28;20059;-83
2023/07/12 15:02:25;;;;;;;1.55;0.70;;;;;;;;;;6304670;28;20105;-83
2023/07/12 15:05:28;;;;;;;1.65;0.77;;;;;;;;;;6305926;28;20036;-82
2023/07/12 15:08:31;;;;;;;;;;;;;;;;;;6306970;28;20047;-84
2023/07/12 15:11:33;;;;;;;1.30;0.70;;;;;;;;;;6305494;28;19923;-82
2023/07/12 15:14:35;;;;;;;1.33;0.70;;;;;;;;;;6307048;28;20976;-82
2023/07/12 15:17:38;;;;;;;1.55;0.80;;;;;;;;;;6290110;28;20395;-83
2023/07/12 15:20:41;;;;;;;1.95;0.70;;;;;;;;;;6296073;28;20051;-82
2023/07/12 15:23:43;;;;;;;1.45;0.73;;;;;;;;;;6309250;28;20044;-83
2023/07/12 15:26:45;;;;;;;2.25;0.75;;;;;;;;;;6308356;28;20087;-83
2023/07/12 15:29:49;;;;;;;1.30;0.80;;;;;;;;;;6292806;28;20048;-82
2023/07/12 15:32:51;;;;;;;0.73;0.70;;;;;;;;;;6312063;28;20077;-82
2023/07/12 15:36:00;;;;;;;2.70;0.70;;;;;;;;;;6307360;28;20083;-82
2023/07/12 15:39:04;;;;;;;0.98;0.73;;;;;;;;;;6308690;28;20040;-82
2023/07/12 15:42:21;;;;;;;1.38;0.60;;;;;;;;;;6274799;28;20109;-82
2023/07/12 15:45:22;;;;;;;0.70;0.60;;;;;;;;;;6311414;28;20051;-82
2023/07/12 15:48:31;;;;;;;2.30;0.67;;;;;;;;;;6296227;28;20087;-82
2023/07/12 15:51:39;;;;;;;1.58;0.70;;;;;;;;;;6295601;28;20816;-83
2023/07/12 15:54:41;;;;;;;1.77;0.63;;;;;;;;;;6311681;28;20055;-83
2023/07/12 15:57:43;;;;;;;1.02;0.70;;;;;;;;;;6317099;28;20066;-83
2023/07/12 16:00:49;;;;;;;;;;;;;;;;;;6304310;28;20053;-83
2023/07/12 16:03:52;;;;;;;2.17;0.65;;;;;;;;;;6317921;28;19939;-83
2023/07/12 16:06:53;;;;;;;1.70;0.80;;;;;;;;;;6277123;28;20052;-80
2023/07/12 16:09:55;;;;;;;0.70;0.60;;;;;;;;;;6306735;28;20052;-80
2023/07/12 16:12:57;;;;;;;3.28;0.85;;;;;;;;;;6288796;28;20047;-81
2023/07/12 16:15:58;;;;;;;2.83;0.70;;;;;;;;;;6306198;28;20052;-78
2023/07/12 16:19:00;;;;;;;1.88;0.80;;;;;;;;;;6291733;28;20040;-78
2023/07/12 16:22:02;;;;;;;1.58;0.60;;;;;;;;;;6305676;28;20501;-77
2023/07/12 16:25:05;;;;;;;1.75;0.70;;;;;;;;;;6304906;28;20036;-78
2023/07/12 16:28:10;;;;;;;1.40;0.70;;;;;;;;;;6295900;28;20044;-78
2023/07/12 16:31:22;;;;;;;1.45;0.70;;;;;;;;;;6307313;28;20048;-78
2023/07/12 16:34:25;;;;;;;;;;;;;;;;;;6307500;28;20048;-79
2023/07/12 16:37:29;;;;;;;3.42;0.70;;;;;;;;;;6282803;28;19967;-78
2023/07/12 16:40:30;;;;;;;1.00;0.60;;;;;;;;;;6305010;28;20052;-78
2023/07/12 16:43:32;;;;;;;1.13;0.70;;;;;;;;;;6304041;28;20039;-77
2023/07/12 16:46:34;;;;;;;1.23;0.60;;;;;;;;;;6281921;28;20071;-76
2023/07/12 16:49:36;;;;;;;1.63;0.70;;;;;;;;;;6297223;28;20426;-77
2023/07/12 16:52:37;;;;;;;1.38;0.73;;;;;;;;;;6299824;28;20051;-77
2023/07/12 16:55:40;;;;;;;2.65;0.90;;;;;;;;;;6300894;28;20062;-78
2023/07/12 16:58:43;;;;;;;1.27;0.65;;;;;;;;;;6287437;28;20082;-79
2023/07/12 17:01:45;;;;;;;1.60;0.73;;;;;;;;;;6309406;28;20036;-78
2023/07/12 17:04:48;;;;;;;2.35;0.90;;;;;;;;;;6303499;28;20048;-79
2023/07/12 17:07:49;;;;;;;;;;;;;;;;;;6289137;28;20075;-77
2023/07/12 17:10:57;;;;;;;1.13;0.73;;;;;;;;;;6285281;28;19924;-77
2023/07/12 17:13:59;;;;;;;1.58;0.70;;;;;;;;;;6287104;28;20044;-76
2023/07/12 17:17:00;;;;;;;1.10;0.60;;;;;;;;;;6305124;28;20048;-78
2023/07/12 17:20:03;;;;;;;1.13;0.68;;;;;;;;;;6286524;28;20529;-77
2023/07/12 17:23:16;;;;;;;2.28;0.75;;;;;;;;;;6300120;28;20039;-77
2023/07/12 17:26:22;;;;;;;0.85;0.63;;;;;;;;;;6306582;28;20036;-80
2023/07/12 17:29:25;;;;;;;2.83;0.85;;;;;;;;;;6307936;28;20414;-79
2023/07/12 17:32:32;;;;;;;3.08;0.80;;;;;;;;;;6308205;28;20386;-79
2023/07/12 17:35:34;;;;;;;0.88;0.70;;;;;;;;;;6305048;28;20043;-79
2023/07/12 17:38:38;;;;;;;2.55;0.95;;;;;;;;;;6289728;28;20090;-79
2023/07/12 17:41:41;;;;;;;1.80;0.77;;;;;;;;;;6291895;28;20040;-78
2023/07/12 17:44:46;;;;;;;2.20;0.90;;;;;;;;;;6291780;28;21642;-79
2023/07/12 17:47:48;;;;;;;1.52;0.73;;;;;;;;;;6308345;28;20510;-79
2023/07/12 17:50:59;;;;;;;3.10;0.90;;;;;;;;;;6307215;28;20052;-79
2023/07/12 17:54:00;;;;;;;1.63;0.85;;;;;;;;;;6301024;28;20503;-80
2023/07/12 17:57:02;;;;;;;1.63;0.80;;;;;;;;;;6308923;28;20044;-81
2023/07/12 18:00:08;;;;;;;5.40;0.88;;;;;;;;;;6307841;28;20430;-80
2023/07/12 18:03:18;;;;;;;2.78;1.00;;;;;;;;;;6289609;28;20046;-79
2023/07/12 18:06:25;;;;;;;1.27;0.70;;;;;;;;;;6285290;28;20090;-80
2023/07/12 18:09:27;;;;;;;2.58;0.93;;;;;;;;;;6309234;28;20040;-80
2023/07/12 18:12:29;;;;;;;2.80;1.00;;;;;;;;;;6310180;28;20044;-80
2023/07/12 18:15:31;;;;;;;1.60;0.80;;;;;;;;;;6308992;28;20039;-80
2023/07/12 18:18:34;;;;;;;1.80;0.90;;;;;;;;;;6309138;28;20043;-79
2023/07/12 18:21:36;;;;;;;1.40;0.90;;;;;;;;;;6308266;28;20449;-79
2023/07/12 18:24:40;;;;;;;1.70;1.00;;;;;;;;;;6285095;28;20047;-79
2023/07/12 18:27:43;;;;;;;1.00;0.90;;;;;;;;;;6291092;28;20409;-80
2023/07/12 18:30:51;;;;;;;3.10;1.20;;;;;;;;;;6290696;28;20417;-80